createdAt,value
2018-06-13T00:00:40.624Z,0
2018-06-13T00:01:40.610Z,0
2018-06-13T00:02:40.918Z,0
2018-06-13T00:03:41.125Z,0
2018-06-13T00:04:40.939Z,0
2018-06-13T00:05:40.644Z,0
2018-06-13T00:06:40.870Z,0
2018-06-13T00:07:40.869Z,0
2018-06-13T00:08:40.404Z,0
2018-06-13T00:09:40.644Z,0
2018-06-13T00:10:40.993Z,0
2018-06-13T00:11:40.607Z,0
2018-06-13T00:12:40.590Z,0
2018-06-13T00:13:40.608Z,0
2018-06-13T00:14:40.874Z,0
2018-06-13T00:15:40.612Z,0
2018-06-13T00:16:40.608Z,0
2018-06-13T00:17:40.610Z,0
2018-06-13T00:18:40.627Z,0
2018-06-13T00:19:40.858Z,0
2018-06-13T00:20:40.620Z,0
2018-06-13T00:21:40.442Z,0
2018-06-13T00:22:40.599Z,0
2018-06-13T00:23:40.852Z,0
2018-06-13T00:24:40.611Z,0
2018-06-13T00:25:40.592Z,0
2018-06-13T00:26:40.792Z,0
2018-06-13T00:27:41.157Z,0
2018-06-13T00:28:40.862Z,0
2018-06-13T00:29:41.133Z,0
2018-06-13T00:30:40.600Z,0
2018-06-13T00:31:40.867Z,0
2018-06-13T00:32:40.862Z,0
2018-06-13T00:33:40.586Z,0
2018-06-13T00:34:40.406Z,0
2018-06-13T00:35:40.865Z,0
2018-06-13T00:36:40.909Z,0
2018-06-13T00:37:40.844Z,0
2018-06-13T00:38:40.590Z,0
2018-06-13T00:39:40.593Z,0
2018-06-13T00:40:41.111Z,0
2018-06-13T00:41:40.601Z,0
2018-06-13T00:42:41.111Z,0
2018-06-13T00:43:41.105Z,0
2018-06-13T00:44:40.585Z,0
2018-06-13T00:45:40.839Z,0
2018-06-13T00:46:40.875Z,0
2018-06-13T00:47:40.592Z,0
2018-06-13T00:48:40.589Z,0
2018-06-13T00:49:41.101Z,0
2018-06-13T00:50:40.578Z,0
2018-06-13T00:51:40.642Z,0
2018-06-13T00:52:40.592Z,0
2018-06-13T00:53:40.364Z,0
2018-06-13T00:54:40.847Z,0
2018-06-13T00:55:41.099Z,0
2018-06-13T00:56:42.150Z,0
2018-06-13T00:57:41.209Z,0
2018-06-13T00:58:40.839Z,0
2018-06-13T00:59:40.840Z,0
2018-06-13T01:00:40.850Z,0
2018-06-13T01:01:40.610Z,0
2018-06-13T01:02:40.880Z,0
2018-06-13T01:03:40.836Z,0
2018-06-13T01:04:40.856Z,0
2018-06-13T01:05:41.411Z,0
2018-06-13T01:06:40.608Z,0
2018-06-13T01:07:40.858Z,0
2018-06-13T01:08:40.606Z,0
2018-06-13T01:09:40.579Z,0
2018-06-13T01:10:40.854Z,0
2018-06-13T01:11:40.843Z,0
2018-06-13T01:12:41.095Z,0
2018-06-13T01:13:40.867Z,0
2018-06-13T01:14:40.570Z,0
2018-06-13T01:15:41.192Z,0
2018-06-13T01:16:40.575Z,0
2018-06-13T01:17:40.305Z,0
2018-06-13T01:18:40.327Z,0
2018-06-13T01:19:40.582Z,0
2018-06-13T01:20:40.590Z,0
2018-06-13T01:21:40.869Z,0
2018-06-13T01:22:40.829Z,0
2018-06-13T01:23:40.842Z,0
2018-06-13T01:24:40.331Z,0
2018-06-13T01:25:41.090Z,0
2018-06-13T01:26:41.096Z,0
2018-06-13T01:27:41.097Z,0
2018-06-13T01:28:41.097Z,0
2018-06-13T01:29:40.873Z,0
2018-06-13T01:30:41.163Z,0
2018-06-13T01:31:41.209Z,0
2018-06-13T01:32:41.099Z,0
2018-06-13T01:33:40.586Z,0
2018-06-13T01:34:41.087Z,0
2018-06-13T01:35:40.577Z,0
2018-06-13T01:36:41.097Z,0
2018-06-13T01:37:40.826Z,0
2018-06-13T01:38:40.566Z,0
2018-06-13T01:39:41.089Z,0
2018-06-13T01:40:40.570Z,0
2018-06-13T01:41:40.818Z,0
2018-06-13T01:42:40.566Z,0
2018-06-13T01:43:40.827Z,0
2018-06-13T01:44:40.836Z,0
2018-06-13T01:45:40.566Z,0
2018-06-13T01:46:40.563Z,0
2018-06-13T01:47:40.837Z,0
2018-06-13T01:48:40.828Z,0
2018-06-13T01:49:41.104Z,0
2018-06-13T01:50:40.550Z,0
2018-06-13T01:51:40.574Z,0
2018-06-13T01:52:40.812Z,0
2018-06-13T01:53:41.085Z,0
2018-06-13T01:54:40.551Z,0
2018-06-13T01:55:40.822Z,0
2018-06-13T01:56:40.553Z,0
2018-06-13T01:57:40.803Z,0
2018-06-13T01:58:40.817Z,0
2018-06-13T01:59:40.568Z,0
2018-06-13T02:00:40.820Z,0
2018-06-13T02:01:40.959Z,0
2018-06-13T02:02:40.548Z,0
2018-06-13T02:03:40.556Z,0
2018-06-13T02:04:40.298Z,0
2018-06-13T02:05:40.291Z,0
2018-06-13T02:06:40.547Z,0
2018-06-13T02:07:41.069Z,0
2018-06-13T02:08:41.060Z,0
2018-06-13T02:09:40.799Z,0
2018-06-13T02:10:40.817Z,0
2018-06-13T02:11:40.604Z,0
2018-06-13T02:12:41.119Z,0
2018-06-13T02:13:40.834Z,0
2018-06-13T02:14:40.793Z,0
2018-06-13T02:15:40.538Z,0
2018-06-13T02:16:40.550Z,0
2018-06-13T02:17:40.535Z,0
2018-06-13T02:18:40.291Z,0
2018-06-13T02:19:40.825Z,0
2018-06-13T02:20:40.803Z,0
2018-06-13T02:21:40.604Z,0
2018-06-13T02:22:40.791Z,0
2018-06-13T02:23:40.537Z,0
2018-06-13T02:24:40.550Z,0
2018-06-13T02:25:41.107Z,0
2018-06-13T02:26:40.853Z,0
2018-06-13T02:27:40.789Z,0
2018-06-13T02:28:40.788Z,0
2018-06-13T02:29:40.535Z,0
2018-06-13T02:30:40.793Z,0
2018-06-13T02:31:41.133Z,0
2018-06-13T02:32:41.109Z,0
2018-06-13T02:33:40.538Z,0
2018-06-13T02:34:40.556Z,0
2018-06-13T02:35:40.879Z,0
2018-06-13T02:36:40.790Z,0
2018-06-13T02:37:41.063Z,0
2018-06-13T02:38:41.142Z,0
2018-06-13T02:39:40.270Z,0
2018-06-13T02:40:41.064Z,0
2018-06-13T02:41:40.784Z,0
2018-06-13T02:42:41.043Z,0
2018-06-13T02:43:40.784Z,0
2018-06-13T02:44:40.513Z,0
2018-06-13T02:45:41.042Z,0
2018-06-13T02:46:40.764Z,0
2018-06-13T02:47:41.036Z,0
2018-06-13T02:48:41.050Z,0
2018-06-13T02:49:40.804Z,0
2018-06-13T02:50:40.510Z,0
2018-06-13T02:51:40.767Z,0
2018-06-13T02:52:40.530Z,0
2018-06-13T02:53:40.277Z,0
2018-06-13T02:54:40.792Z,0
2018-06-13T02:55:40.782Z,0
2018-06-13T02:56:40.786Z,4
2018-06-13T02:57:41.821Z,4
2018-06-13T02:58:40.775Z,4
2018-06-13T02:59:40.845Z,0
2018-06-13T03:00:40.760Z,4
2018-06-13T03:01:40.762Z,4
2018-06-13T03:02:41.013Z,4
2018-06-13T03:03:40.496Z,4
2018-06-13T03:04:40.766Z,4
2018-06-13T03:05:40.498Z,8
2018-06-13T03:06:40.761Z,4
2018-06-13T03:07:41.018Z,4
2018-06-13T03:08:41.013Z,8
2018-06-13T03:09:41.022Z,8
2018-06-13T03:10:40.762Z,8
2018-06-13T03:11:41.010Z,8
2018-06-13T03:12:40.816Z,8
2018-06-13T03:13:41.008Z,12
2018-06-13T03:14:40.751Z,8
2018-06-13T03:15:40.734Z,12
2018-06-13T03:16:40.773Z,12
2018-06-13T03:17:40.475Z,12
2018-06-13T03:18:40.482Z,12
2018-06-13T03:19:40.983Z,16
2018-06-13T03:20:40.994Z,16
2018-06-13T03:21:40.503Z,20
2018-06-13T03:22:40.737Z,24
2018-06-13T03:23:41.041Z,24
2018-06-13T03:24:40.734Z,24
2018-06-13T03:25:40.980Z,28
2018-06-13T03:26:40.476Z,32
2018-06-13T03:27:41.584Z,36
2018-06-13T03:28:40.468Z,36
2018-06-13T03:29:40.983Z,44
2018-06-13T03:30:41.014Z,48
2018-06-13T03:31:41.091Z,48
2018-06-13T03:32:40.722Z,56
2018-06-13T03:33:40.985Z,60
2018-06-13T03:34:40.734Z,64
2018-06-13T03:35:40.731Z,68
2018-06-13T03:36:40.728Z,72
2018-06-13T03:37:40.723Z,80
2018-06-13T03:38:40.707Z,84
2018-06-13T03:39:40.988Z,92
2018-06-13T03:40:40.701Z,100
2018-06-13T03:41:40.724Z,104
2018-06-13T03:42:40.707Z,112
2018-06-13T03:43:40.966Z,112
2018-06-13T03:44:40.730Z,120
2018-06-13T03:45:40.710Z,124
2018-06-13T03:46:40.710Z,128
2018-06-13T03:47:40.701Z,136
2018-06-13T03:48:40.691Z,140
2018-06-13T03:49:40.705Z,144
2018-06-13T03:50:40.973Z,148
2018-06-13T03:51:40.698Z,156
2018-06-13T03:52:40.707Z,164
2018-06-13T03:53:40.702Z,172
2018-06-13T03:54:40.973Z,180
2018-06-13T03:55:40.455Z,192
2018-06-13T03:56:40.433Z,196
2018-06-13T03:57:42.311Z,204
2018-06-13T03:58:40.710Z,212
2018-06-13T03:59:40.718Z,212
2018-06-13T04:00:40.451Z,220
2018-06-13T04:01:40.492Z,224
2018-06-13T04:02:40.431Z,228
2018-06-13T04:03:40.958Z,240
2018-06-13T04:04:40.440Z,248
2018-06-13T04:05:40.690Z,260
2018-06-13T04:06:40.740Z,268
2018-06-13T04:07:40.681Z,256
2018-06-13T04:08:40.682Z,252
2018-06-13T04:09:40.684Z,256
2018-06-13T04:10:40.963Z,268
2018-06-13T04:11:40.985Z,272
2018-06-13T04:12:40.686Z,264
2018-06-13T04:13:40.811Z,236
2018-06-13T04:14:40.938Z,236
2018-06-13T04:15:40.940Z,232
2018-06-13T04:16:40.943Z,248
2018-06-13T04:17:40.402Z,276
2018-06-13T04:18:40.685Z,296
2018-06-13T04:19:40.672Z,300
2018-06-13T04:20:40.672Z,296
2018-06-13T04:21:40.664Z,296
2018-06-13T04:22:40.668Z,312
2018-06-13T04:23:40.924Z,320
2018-06-13T04:24:40.677Z,332
2018-06-13T04:25:40.929Z,316
2018-06-13T04:26:40.935Z,324
2018-06-13T04:27:40.675Z,340
2018-06-13T04:28:42.533Z,348
2018-06-13T04:29:40.448Z,392
2018-06-13T04:30:40.942Z,408
2018-06-13T04:31:40.690Z,420
2018-06-13T04:32:40.780Z,412
2018-06-13T04:33:40.406Z,400
2018-06-13T04:34:40.463Z,380
2018-06-13T04:35:40.966Z,376
2018-06-13T04:36:40.965Z,388
2018-06-13T04:37:40.684Z,392
2018-06-13T04:38:40.665Z,424
2018-06-13T04:39:40.657Z,404
2018-06-13T04:40:40.654Z,396
2018-06-13T04:41:40.922Z,456
2018-06-13T04:42:40.930Z,532
2018-06-13T04:43:40.663Z,560
2018-06-13T04:44:40.676Z,668
2018-06-13T04:45:40.403Z,728
2018-06-13T04:46:40.391Z,720
2018-06-13T04:47:40.646Z,708
2018-06-13T04:48:40.660Z,684
2018-06-13T04:49:40.657Z,664
2018-06-13T04:50:40.664Z,636
2018-06-13T04:51:40.638Z,648
2018-06-13T04:52:40.639Z,672
2018-06-13T04:53:40.902Z,748
2018-06-13T04:54:40.646Z,780
2018-06-13T04:55:40.126Z,780
2018-06-13T04:56:40.717Z,760
2018-06-13T04:57:40.914Z,708
2018-06-13T04:58:40.665Z,744
2018-06-13T04:59:40.383Z,812
2018-06-13T05:00:40.656Z,852
2018-06-13T05:01:40.393Z,832
2018-06-13T05:02:42.889Z,884
2018-06-13T05:03:41.443Z,908
2018-06-13T05:04:40.642Z,924
2018-06-13T05:05:40.726Z,932
2018-06-13T05:06:40.625Z,912
2018-06-13T05:07:40.645Z,876
2018-06-13T05:08:40.897Z,860
2018-06-13T05:09:40.650Z,828
2018-06-13T05:10:40.632Z,824
2018-06-13T05:11:40.441Z,872
2018-06-13T05:12:40.886Z,836
2018-06-13T05:13:40.907Z,808
2018-06-13T05:14:40.633Z,772
2018-06-13T05:15:40.658Z,804
2018-06-13T05:16:40.969Z,844
2018-06-13T05:17:40.628Z,880
2018-06-13T05:18:40.654Z,948
2018-06-13T05:19:40.888Z,1032
2018-06-13T05:20:40.372Z,1048
2018-06-13T05:21:40.631Z,956
2018-06-13T05:22:40.629Z,852
2018-06-13T05:23:40.405Z,804
2018-06-13T05:24:40.615Z,928
2018-06-13T05:25:40.913Z,888
2018-06-13T05:26:40.625Z,900
2018-06-13T05:27:40.615Z,960
2018-06-13T05:28:42.377Z,1012
2018-06-13T05:29:40.614Z,1128
2018-06-13T05:30:40.626Z,1176
2018-06-13T05:31:40.618Z,1192
2018-06-13T05:32:40.367Z,1116
2018-06-13T05:33:40.612Z,992
2018-06-13T05:34:40.371Z,964
2018-06-13T05:35:40.355Z,1044
2018-06-13T05:36:40.617Z,1072
2018-06-13T05:37:40.354Z,1168
2018-06-13T05:38:40.864Z,1224
2018-06-13T05:39:40.628Z,1260
2018-06-13T05:40:40.614Z,1312
2018-06-13T05:41:40.618Z,1268
2018-06-13T05:42:40.619Z,1252
2018-06-13T05:43:40.882Z,1248
2018-06-13T05:44:40.868Z,1120
2018-06-13T05:45:40.869Z,1088
2018-06-13T05:46:40.603Z,1256
2018-06-13T05:47:40.860Z,1356
2018-06-13T05:48:40.592Z,1376
2018-06-13T05:49:40.342Z,1368
2018-06-13T05:50:40.094Z,1400
2018-06-13T05:51:40.338Z,1496
2018-06-13T05:52:40.364Z,1688
2018-06-13T05:53:40.340Z,1632
2018-06-13T05:54:40.338Z,1580
2018-06-13T05:55:40.866Z,1564
2018-06-13T05:56:40.608Z,1612
2018-06-13T05:57:40.600Z,1744
2018-06-13T05:58:40.361Z,1716
2018-06-13T05:59:42.513Z,1700
2018-06-13T06:00:40.339Z,1644
2018-06-13T06:01:40.596Z,1712
2018-06-13T06:02:40.616Z,1692
2018-06-13T06:03:40.600Z,1684
2018-06-13T06:04:40.593Z,1684
2018-06-13T06:05:40.347Z,1680
2018-06-13T06:06:40.602Z,1708
2018-06-13T06:07:40.591Z,1736
2018-06-13T06:08:40.598Z,1924
2018-06-13T06:09:40.854Z,1980
2018-06-13T06:10:40.355Z,2024
2018-06-13T06:11:40.590Z,2104
2018-06-13T06:12:40.609Z,2152
2018-06-13T06:13:40.352Z,2260
2018-06-13T06:14:40.852Z,2424
2018-06-13T06:15:40.611Z,2572
2018-06-13T06:16:40.352Z,2668
2018-06-13T06:17:40.851Z,2744
2018-06-13T06:18:40.613Z,2804
2018-06-13T06:19:40.846Z,2844
2018-06-13T06:20:40.863Z,2764
2018-06-13T06:21:40.875Z,2628
2018-06-13T06:22:40.848Z,2516
2018-06-13T06:23:40.761Z,2452
2018-06-13T06:24:40.582Z,2436
2018-06-13T06:25:40.607Z,2404
2018-06-13T06:26:40.591Z,2400
2018-06-13T06:27:40.861Z,2372
2018-06-13T06:28:40.888Z,2260
2018-06-13T06:29:40.842Z,2360
2018-06-13T06:30:40.341Z,2376
2018-06-13T06:31:40.325Z,2408
2018-06-13T06:32:40.610Z,2436
2018-06-13T06:33:40.587Z,2428
2018-06-13T06:34:41.150Z,2440
2018-06-13T06:35:40.583Z,2304
2018-06-13T06:36:40.599Z,2196
2018-06-13T06:37:40.584Z,2176
2018-06-13T06:38:40.326Z,2176
2018-06-13T06:39:40.635Z,2180
2018-06-13T06:40:40.579Z,2224
2018-06-13T06:41:40.838Z,2272
2018-06-13T06:42:40.363Z,2300
2018-06-13T06:43:40.338Z,2352
2018-06-13T06:44:40.382Z,2412
2018-06-13T06:45:40.577Z,2492
2018-06-13T06:46:40.941Z,2616
2018-06-13T06:47:40.625Z,2776
2018-06-13T06:48:40.578Z,2960
2018-06-13T06:49:40.397Z,3184
2018-06-13T06:50:40.327Z,3396
2018-06-13T06:51:40.576Z,3628
2018-06-13T06:52:40.854Z,3848
2018-06-13T06:53:40.567Z,4004
2018-06-13T06:54:40.076Z,4152
2018-06-13T06:55:41.372Z,4348
2018-06-13T06:56:40.190Z,4580
2018-06-13T06:57:40.620Z,4892
2018-06-13T06:58:40.817Z,5156
2018-06-13T06:59:40.309Z,5396
2018-06-13T07:00:40.560Z,5540
2018-06-13T07:01:40.365Z,5436
2018-06-13T07:02:40.126Z,5256
2018-06-13T07:03:40.604Z,5116
2018-06-13T07:04:40.590Z,5016
2018-06-13T07:05:40.576Z,5032
2018-06-13T07:06:40.569Z,5164
2018-06-13T07:07:40.571Z,5384
2018-06-13T07:08:40.576Z,5668
2018-06-13T07:09:40.072Z,5908
2018-06-13T07:10:40.315Z,6092
2018-06-13T07:11:40.316Z,6204
2018-06-13T07:12:40.326Z,6328
2018-06-13T07:13:40.602Z,6488
2018-06-13T07:14:40.070Z,6736
2018-06-13T07:15:40.087Z,6900
2018-06-13T07:16:40.835Z,7036
2018-06-13T07:17:40.577Z,7216
2018-06-13T07:18:40.833Z,7324
2018-06-13T07:19:40.583Z,7320
2018-06-13T07:20:40.575Z,7312
2018-06-13T07:21:40.329Z,7100
2018-06-13T07:22:40.822Z,6688
2018-06-13T07:23:40.328Z,6644
2018-06-13T07:24:40.931Z,7052
2018-06-13T07:25:40.339Z,7424
2018-06-13T07:26:40.320Z,7448
2018-06-13T07:27:40.316Z,7124
2018-06-13T07:28:40.571Z,6528
2018-06-13T07:29:40.595Z,6056
2018-06-13T07:30:40.559Z,5708
2018-06-13T07:31:40.335Z,5756
2018-06-13T07:32:40.341Z,5752
2018-06-13T07:33:40.464Z,5680
2018-06-13T07:34:40.609Z,5844
2018-06-13T07:35:40.591Z,6268
2018-06-13T07:36:40.625Z,6920
2018-06-13T07:37:40.576Z,7204
2018-06-13T07:38:40.308Z,7652
2018-06-13T07:39:40.356Z,8388
2018-06-13T07:40:40.591Z,9156
2018-06-13T07:41:40.462Z,9892
2018-06-13T07:42:40.594Z,10256
2018-06-13T07:43:40.344Z,10376
2018-06-13T07:44:40.576Z,10380
2018-06-13T07:45:40.640Z,10316
2018-06-13T07:46:40.342Z,10380
2018-06-13T07:47:40.117Z,10556
2018-06-13T07:48:40.590Z,10844
2018-06-13T07:49:40.456Z,10872
2018-06-13T07:50:40.855Z,10708
2018-06-13T07:51:40.865Z,10276
2018-06-13T07:52:40.590Z,9792
2018-06-13T07:53:40.350Z,9552
2018-06-13T07:54:40.134Z,10008
2018-06-13T07:55:40.366Z,10412
2018-06-13T07:56:40.347Z,9972
2018-06-13T07:57:40.349Z,9220
2018-06-13T07:58:40.865Z,8452
2018-06-13T07:59:40.419Z,8044
2018-06-13T08:00:41.920Z,7668
2018-06-13T08:01:40.861Z,7528
2018-06-13T08:02:40.598Z,7252
2018-06-13T08:03:40.357Z,6556
2018-06-13T08:04:40.621Z,6036
2018-06-13T08:05:40.489Z,5832
2018-06-13T08:06:40.345Z,5788
2018-06-13T08:07:40.358Z,5916
2018-06-13T08:08:40.607Z,6228
2018-06-13T08:09:40.636Z,6684
2018-06-13T08:10:40.618Z,7080
2018-06-13T08:11:40.914Z,7476
2018-06-13T08:12:40.889Z,7964
2018-06-13T08:13:40.867Z,8240
2018-06-13T08:14:40.380Z,8292
2018-06-13T08:15:40.622Z,8116
2018-06-13T08:16:40.627Z,7636
2018-06-13T08:17:40.369Z,7012
2018-06-13T08:18:40.874Z,6340
2018-06-13T08:19:40.623Z,5868
2018-06-13T08:20:40.632Z,5388
2018-06-13T08:21:40.892Z,5064
2018-06-13T08:22:40.627Z,4796
2018-06-13T08:23:40.386Z,4560
2018-06-13T08:24:40.630Z,4312
2018-06-13T08:25:40.374Z,4112
2018-06-13T08:26:40.639Z,3976
2018-06-13T08:27:40.640Z,3964
2018-06-13T08:28:40.627Z,3936
2018-06-13T08:29:40.381Z,3916
2018-06-13T08:30:40.381Z,3892
2018-06-13T08:31:40.463Z,3868
2018-06-13T08:32:40.371Z,3784
2018-06-13T08:33:40.675Z,3688
2018-06-13T08:34:40.382Z,3592
2018-06-13T08:35:40.676Z,3456
2018-06-13T08:36:40.900Z,3340
2018-06-13T08:37:40.672Z,3320
2018-06-13T08:38:40.659Z,3284
2018-06-13T08:39:40.630Z,3224
2018-06-13T08:40:40.638Z,3188
2018-06-13T08:41:40.139Z,3100
2018-06-13T08:42:40.650Z,2972
2018-06-13T08:43:40.931Z,2872
2018-06-13T08:44:40.656Z,2848
2018-06-13T08:45:40.635Z,2924
2018-06-13T08:46:40.729Z,3012
2018-06-13T08:47:40.913Z,3068
2018-06-13T08:48:40.503Z,3124
2018-06-13T08:49:40.660Z,3220
2018-06-13T08:50:40.648Z,3340
2018-06-13T08:51:40.378Z,3376
2018-06-13T08:52:40.399Z,3268
2018-06-13T08:53:40.384Z,3028
2018-06-13T08:54:40.912Z,2800
2018-06-13T08:55:40.972Z,2660
2018-06-13T08:56:40.416Z,2632
2018-06-13T08:57:40.651Z,2688
2018-06-13T08:58:40.652Z,2772
2018-06-13T08:59:40.919Z,2852
2018-06-13T09:00:40.687Z,2876
2018-06-13T09:01:40.649Z,2864
2018-06-13T09:02:40.395Z,2912
2018-06-13T09:03:40.378Z,2972
2018-06-13T09:04:40.912Z,3012
2018-06-13T09:05:40.403Z,3040
2018-06-13T09:06:40.949Z,3168
2018-06-13T09:07:40.675Z,3368
2018-06-13T09:08:40.916Z,3452
2018-06-13T09:09:40.643Z,3528
2018-06-13T09:10:40.921Z,3688
2018-06-13T09:11:41.008Z,3884
2018-06-13T09:12:40.902Z,4148
2018-06-13T09:13:40.902Z,4372
2018-06-13T09:14:40.644Z,4664
2018-06-13T09:15:40.672Z,5060
2018-06-13T09:16:40.670Z,5500
2018-06-13T09:17:40.380Z,5968
2018-06-13T09:18:40.158Z,6464
2018-06-13T09:19:40.901Z,7028
2018-06-13T09:20:40.895Z,7684
2018-06-13T09:21:40.386Z,8432
2018-06-13T09:22:40.645Z,9044
2018-06-13T09:23:40.658Z,9436
2018-06-13T09:24:40.899Z,9640
2018-06-13T09:25:40.413Z,9664
2018-06-13T09:26:40.394Z,9640
2018-06-13T09:27:40.651Z,9608
2018-06-13T09:28:40.640Z,9716
2018-06-13T09:29:40.988Z,9712
2018-06-13T09:30:41.005Z,9768
2018-06-13T09:31:40.231Z,9732
2018-06-13T09:32:40.897Z,9564
2018-06-13T09:33:40.645Z,9172
2018-06-13T09:34:40.418Z,8672
2018-06-13T09:35:40.658Z,8744
2018-06-13T09:36:40.640Z,9044
2018-06-13T09:37:41.190Z,8788
2018-06-13T09:38:40.645Z,8544
2018-06-13T09:39:40.404Z,8612
2018-06-13T09:40:40.401Z,8588
2018-06-13T09:41:40.418Z,8740
2018-06-13T09:42:40.412Z,8784
2018-06-13T09:43:40.427Z,8648
2018-06-13T09:44:40.663Z,8396
2018-06-13T09:45:40.397Z,8040
2018-06-13T09:46:40.654Z,7648
2018-06-13T09:47:40.903Z,7384
2018-06-13T09:48:40.657Z,7204
2018-06-13T09:49:40.679Z,6996
2018-06-13T09:50:40.659Z,6756
2018-06-13T09:51:40.939Z,6472
2018-06-13T09:52:40.654Z,6252
2018-06-13T09:53:40.924Z,6092
2018-06-13T09:54:40.673Z,6016
2018-06-13T09:55:40.681Z,5996
2018-06-13T09:56:40.791Z,6024
2018-06-13T09:57:40.411Z,6140
2018-06-13T09:58:40.679Z,6360
2018-06-13T09:59:40.687Z,6648
2018-06-13T10:00:41.181Z,6992
2018-06-13T10:01:41.099Z,7356
2018-06-13T10:02:40.954Z,7700
2018-06-13T10:03:40.184Z,8008
2018-06-13T10:04:41.075Z,8276
2018-06-13T10:05:40.437Z,8496
2018-06-13T10:06:40.681Z,8700
2018-06-13T10:07:40.692Z,8876
2018-06-13T10:08:40.732Z,9000
2018-06-13T10:09:40.443Z,9112
2018-06-13T10:10:40.952Z,9204
2018-06-13T10:11:40.956Z,9272
2018-06-13T10:12:40.963Z,9308
2018-06-13T10:13:40.687Z,9280
2018-06-13T10:14:40.692Z,9232
2018-06-13T10:15:40.699Z,9144
2018-06-13T10:16:40.436Z,8944
2018-06-13T10:17:40.969Z,8632
2018-06-13T10:18:41.127Z,8332
2018-06-13T10:19:40.689Z,8032
2018-06-13T10:20:40.696Z,7668
2018-06-13T10:21:40.695Z,7336
2018-06-13T10:22:40.966Z,7160
2018-06-13T10:53:33.355Z,5932
2018-06-13T10:54:31.736Z,6136
2018-06-13T10:55:32.318Z,6352
2018-06-13T10:56:32.239Z,6584
2018-06-13T10:57:31.950Z,6816
2018-06-13T10:58:31.944Z,7108
2018-06-13T10:59:31.951Z,7464
2018-06-13T11:00:32.460Z,7868
2018-06-13T11:01:31.987Z,8288
2018-06-13T11:02:32.221Z,8744
2018-06-13T11:03:32.202Z,9188
2018-06-13T11:04:31.957Z,9564
2018-06-13T11:05:32.263Z,9948
2018-06-13T11:06:32.559Z,10356
2018-06-13T11:07:31.953Z,10764
2018-06-13T11:08:31.717Z,11148
2018-06-13T11:09:32.209Z,11520
2018-06-13T11:10:32.210Z,11880
2018-06-13T11:11:32.312Z,12240
2018-06-13T11:12:31.950Z,12528
2018-06-13T11:13:32.207Z,12816
2018-06-13T11:14:32.212Z,13080
2018-06-13T11:15:31.701Z,13312
2018-06-13T11:16:32.210Z,13584
2018-06-13T11:17:32.216Z,13832
2018-06-13T11:18:32.226Z,14048
2018-06-13T11:19:32.505Z,14192
2018-06-13T11:20:32.055Z,14280
2018-06-13T11:21:32.007Z,14360
2018-06-13T11:22:32.269Z,14464
2018-06-13T11:23:32.225Z,14644
2018-06-13T11:24:32.012Z,14892
2018-06-13T11:25:32.504Z,15144
2018-06-13T11:26:32.543Z,15432
2018-06-13T11:27:31.999Z,15632
2018-06-13T11:28:32.017Z,15732
2018-06-13T11:29:32.276Z,15760
2018-06-13T11:30:32.527Z,15700
2018-06-13T11:31:32.415Z,15564
2018-06-13T11:32:32.241Z,15268
2018-06-13T11:33:32.002Z,15028
2018-06-13T11:34:32.237Z,14980
2018-06-13T11:35:32.280Z,15020
2018-06-13T11:36:32.628Z,14932
2018-06-13T11:37:32.273Z,14708
2018-06-13T11:38:32.277Z,14652
2018-06-13T11:39:32.027Z,14828
2018-06-13T11:40:32.267Z,14820
2018-06-13T11:41:32.578Z,14668
2018-06-13T11:42:32.521Z,14456
2018-06-13T11:43:32.294Z,14180
2018-06-13T11:44:33.013Z,13892
2018-06-13T11:45:31.774Z,13568
2018-06-13T11:46:32.298Z,13036
2018-06-13T11:47:32.023Z,12604
2018-06-13T11:48:31.760Z,12356
2018-06-13T11:49:32.362Z,11976
2018-06-13T11:50:32.280Z,11556
2018-06-13T11:51:32.042Z,11308
2018-06-13T11:52:32.036Z,11008
2018-06-13T11:53:32.421Z,10968
2018-06-13T11:54:32.074Z,10936
2018-06-13T11:55:32.304Z,10816
2018-06-13T11:56:32.384Z,10804
2018-06-13T11:57:32.312Z,10704
2018-06-13T11:58:32.595Z,10820
2018-06-13T11:59:32.328Z,11108
2018-06-13T12:00:32.729Z,11432
2018-06-13T12:01:32.120Z,11796
2018-06-13T12:02:32.343Z,12100
2018-06-13T12:03:32.328Z,12304
2018-06-13T12:04:32.331Z,12448
2018-06-13T12:05:32.096Z,12636
2018-06-13T12:06:32.179Z,12716
2018-06-13T12:07:31.832Z,12792
2018-06-13T12:08:32.639Z,12864
2018-06-13T12:09:32.718Z,12932
2018-06-13T12:10:32.121Z,12884
2018-06-13T12:11:32.842Z,12840
2018-06-13T12:12:32.114Z,12800
2018-06-13T12:13:32.617Z,12760
2018-06-13T12:14:32.111Z,12680
2018-06-13T12:15:32.101Z,12540
2018-06-13T12:16:32.700Z,12300
2018-06-13T12:17:32.378Z,11912
2018-06-13T12:18:31.830Z,11392
2018-06-13T12:19:32.376Z,10632
2018-06-13T12:20:32.623Z,9648
2018-06-13T12:21:32.377Z,8440
2018-06-13T12:22:32.189Z,7288
2018-06-13T12:23:32.697Z,6184
2018-06-13T12:24:31.860Z,4976
2018-06-13T12:25:32.131Z,4104
2018-06-13T12:26:32.639Z,3528
2018-06-13T12:27:32.407Z,3188
2018-06-13T12:28:32.169Z,2956
2018-06-13T12:29:32.145Z,2844
2018-06-13T12:30:32.148Z,2816
2018-06-13T12:31:32.384Z,2820
2018-06-13T12:32:32.683Z,2840
2018-06-13T12:33:32.172Z,2872
2018-06-13T12:34:32.138Z,2924
2018-06-13T12:35:32.411Z,2924
2018-06-13T12:36:32.673Z,2904
2018-06-13T12:37:32.398Z,2936
2018-06-13T12:38:32.418Z,2956
2018-06-13T12:39:32.432Z,2980
2018-06-13T12:40:32.151Z,3008
2018-06-13T12:41:32.150Z,3064
2018-06-13T12:42:32.430Z,3136
2018-06-13T12:43:32.186Z,3212
2018-06-13T12:44:32.675Z,3304
2018-06-13T12:45:32.527Z,3380
2018-06-13T12:46:32.489Z,3412
2018-06-13T12:47:32.422Z,3492
2018-06-13T12:48:32.431Z,3572
2018-06-13T12:49:32.697Z,3640
2018-06-13T12:50:32.687Z,3692
2018-06-13T12:51:32.429Z,3732
2018-06-13T12:52:32.680Z,3816
2018-06-13T12:53:32.166Z,3928
2018-06-13T12:54:32.169Z,4076
2018-06-13T12:55:32.743Z,4280
2018-06-13T12:56:32.734Z,4500
2018-06-13T12:57:32.508Z,4720
2018-06-13T12:58:32.425Z,4948
2018-06-13T12:59:31.914Z,5196
2018-06-13T13:00:32.153Z,5416
2018-06-13T13:01:32.755Z,5656
2018-06-13T13:02:32.689Z,5896
2018-06-13T13:03:32.187Z,6272
2018-06-13T13:04:32.441Z,6592
2018-06-13T13:05:32.688Z,6868
2018-06-13T13:06:32.506Z,7140
2018-06-13T13:07:32.421Z,7432
2018-06-13T13:08:32.693Z,7832
2018-06-13T13:09:32.702Z,8288
2018-06-13T13:10:32.763Z,8736
2018-06-13T13:11:32.347Z,9188
2018-06-13T13:12:32.689Z,9668
2018-06-13T13:13:32.176Z,10164
2018-06-13T13:14:32.437Z,10624
2018-06-13T13:15:32.686Z,11068
2018-06-13T13:16:32.523Z,11460
2018-06-13T13:17:32.441Z,11788
2018-06-13T13:18:32.428Z,12104
2018-06-13T13:19:32.429Z,12348
2018-06-13T13:20:32.867Z,12496
2018-06-13T13:21:32.210Z,12612
2018-06-13T13:22:32.706Z,12704
2018-06-13T13:23:32.707Z,12704
2018-06-13T13:24:32.487Z,12672
2018-06-13T13:25:32.787Z,12588
2018-06-13T13:26:32.274Z,12516
2018-06-13T13:27:32.470Z,12388
2018-06-13T13:28:32.723Z,12152
2018-06-13T13:29:32.719Z,11796
2018-06-13T13:30:32.449Z,11412
2018-06-13T13:31:32.521Z,11136
2018-06-13T13:32:32.692Z,10680
2018-06-13T13:33:32.179Z,10436
2018-06-13T13:34:32.453Z,10128
2018-06-13T13:35:32.721Z,9796
2018-06-13T13:36:32.531Z,9340
2018-06-13T13:37:32.768Z,8884
2018-06-13T13:38:33.570Z,8356
2018-06-13T13:39:32.474Z,7724
2018-06-13T13:40:32.713Z,6940
2018-06-13T13:41:32.256Z,6128
2018-06-13T13:42:32.761Z,5344
2018-06-13T13:43:32.489Z,4696
2018-06-13T13:44:32.232Z,4244
2018-06-13T13:45:32.806Z,3956
2018-06-13T13:46:32.813Z,3780
2018-06-13T13:47:32.490Z,3664
2018-06-13T13:48:32.509Z,3564
2018-06-13T13:49:32.484Z,3500
2018-06-13T13:50:32.482Z,3540
2018-06-13T13:51:32.860Z,3648
2018-06-13T13:52:32.499Z,3780
2018-06-13T13:53:32.753Z,3968
2018-06-13T13:54:32.509Z,4192
2018-06-13T13:55:32.766Z,4416
2018-06-13T13:56:32.555Z,4604
2018-06-13T13:57:32.246Z,4792
2018-06-13T13:58:32.501Z,5024
2018-06-13T13:59:33.008Z,5296
2018-06-13T14:00:32.596Z,5588
2018-06-13T14:01:32.530Z,5872
2018-06-13T14:02:32.504Z,6144
2018-06-13T14:03:32.766Z,6424
2018-06-13T14:04:32.502Z,6712
2018-06-13T14:05:32.512Z,7036
2018-06-13T14:06:32.290Z,7340
2018-06-13T14:07:32.516Z,7612
2018-06-13T14:08:32.539Z,7864
2018-06-13T14:09:32.264Z,8128